createdAt,value
2022-09-06T00:00:18.219Z,26.00
2022-09-06T00:02:56.287Z,26.00
2022-09-06T00:05:31.600Z,26.10
2022-09-06T00:08:05.893Z,26.10
2022-09-06T00:10:40.098Z,26.10
2022-09-06T00:13:14.803Z,26.10
2022-09-06T00:15:48.752Z,26.10
2022-09-06T00:18:22.819Z,26.10
2022-09-06T00:20:59.218Z,25.90
2022-09-06T00:23:32.069Z,26.00
2022-09-06T00:26:10.188Z,26.20
2022-09-06T00:28:43.745Z,26.50
2022-09-06T00:31:19.496Z,26.80
2022-09-06T00:33:53.751Z,27.10
2022-09-06T00:36:29.587Z,27.10
2022-09-06T00:41:53.266Z,27.60
2022-09-06T00:44:26.962Z,27.80
2022-09-06T00:47:00.804Z,28.50
2022-09-06T00:49:39.103Z,28.70
2022-09-06T00:52:20.455Z,28.50
2022-09-06T00:54:55.959Z,28.60
2022-09-06T00:57:30.664Z,28.60
2022-09-06T01:00:06.178Z,29.10
2022-09-06T01:02:41.414Z,30.20
2022-09-06T01:05:16.463Z,31.20
2022-09-06T01:08:10.399Z,31.30
2022-09-06T01:10:57.767Z,30.60
2022-09-06T01:13:42.250Z,30.50
2022-09-06T01:16:22.763Z,30.40
2022-09-06T01:19:23.388Z,30.00
2022-09-06T01:22:01.375Z,30.00
2022-09-06T01:25:13.993Z,29.70
2022-09-06T01:28:21.270Z,29.60
2022-09-06T01:31:21.644Z,29.80
2022-09-06T01:34:15.157Z,30.30
2022-09-06T01:37:09.330Z,30.60
2022-09-06T01:39:44.846Z,31.50
2022-09-06T01:42:26.585Z,32.30
2022-09-06T01:45:06.046Z,32.90
2022-09-06T01:47:46.906Z,33.10
2022-09-06T01:50:49.916Z,33.80
2022-09-06T01:53:41.147Z,34.50
2022-09-06T01:56:25.476Z,34.80
2022-09-06T01:59:16.317Z,34.60
2022-09-06T02:02:01.595Z,34.60
2022-09-06T02:04:39.710Z,34.70
2022-09-06T02:07:20.310Z,34.00
2022-09-06T02:09:58.162Z,34.10
2022-09-06T02:12:33.821Z,34.60
2022-09-06T02:15:11.518Z,35.30
2022-09-06T02:17:51.339Z,35.30
2022-09-06T02:20:29.337Z,35.80
2022-09-06T02:25:57.504Z,35.50
2022-09-06T02:28:31.881Z,34.90
2022-09-06T02:31:08.103Z,35.30
2022-09-06T02:33:44.169Z,35.40
2022-09-06T02:36:19.246Z,35.50
2022-09-06T02:38:52.788Z,35.70
2022-09-06T02:41:27.726Z,35.90
2022-09-06T02:44:02.625Z,35.80
2022-09-06T02:46:36.645Z,35.90
2022-09-06T02:49:12.073Z,35.90
2022-09-06T02:51:45.281Z,35.60
2022-09-06T02:54:18.878Z,35.60
2022-09-06T02:56:55.012Z,35.80
2022-09-06T02:59:29.151Z,35.60
2022-09-06T03:02:03.004Z,35.40
2022-09-06T03:04:39.174Z,35.60
2022-09-06T03:07:14.153Z,36.40
2022-09-06T03:09:48.172Z,36.80
2022-09-06T03:12:21.280Z,36.70
2022-09-06T03:14:55.244Z,36.80
2022-09-06T03:17:28.494Z,36.50
2022-09-06T03:20:07.373Z,36.00
2022-09-06T03:22:42.909Z,35.80
2022-09-06T03:25:19.442Z,35.30
2022-09-06T03:27:53.087Z,35.10
2022-09-06T03:30:27.043Z,35.50
2022-09-06T03:33:02.936Z,35.70
2022-09-06T03:35:38.498Z,35.70
2022-09-06T03:38:11.787Z,35.60
2022-09-06T03:40:47.140Z,35.10
2022-09-06T03:43:23.348Z,35.60
2022-09-06T03:45:58.153Z,35.50
2022-09-06T03:48:33.419Z,35.80
2022-09-06T03:51:08.913Z,35.50
2022-09-06T03:53:42.676Z,35.40
2022-09-06T03:56:16.527Z,35.10
2022-09-06T03:58:50.442Z,35.10
2022-09-06T04:01:24.017Z,35.40
2022-09-06T04:03:58.032Z,34.60
2022-09-06T04:06:36.923Z,34.10
2022-09-06T04:09:11.043Z,34.10
2022-09-06T04:11:45.306Z,34.10
2022-09-06T04:14:19.076Z,34.10
2022-09-06T04:16:53.557Z,34.00
2022-09-06T04:19:27.419Z,33.90
2022-09-06T04:22:03.014Z,34.00
2022-09-06T04:24:37.195Z,34.40
2022-09-06T04:27:10.762Z,34.00
2022-09-06T04:29:48.724Z,33.70
2022-09-06T04:32:24.105Z,33.30
2022-09-06T04:34:57.468Z,33.30
2022-09-06T04:37:32.597Z,33.40
2022-09-06T04:40:08.231Z,33.20
2022-09-06T04:42:41.378Z,33.10
2022-09-06T04:45:16.539Z,33.00
2022-09-06T04:47:51.786Z,32.70
2022-09-06T04:50:25.844Z,32.80
2022-09-06T04:53:15.547Z,33.00
2022-09-06T04:55:49.772Z,32.60
2022-09-06T04:58:26.107Z,32.60
2022-09-06T05:01:17.659Z,32.50
2022-09-06T05:03:56.200Z,32.50
2022-09-06T05:06:31.223Z,32.60
2022-09-06T05:09:07.536Z,32.50
2022-09-06T05:11:41.196Z,32.40
2022-09-06T05:14:16.175Z,32.40
2022-09-06T05:16:50.543Z,32.50
2022-09-06T05:19:24.022Z,32.50
2022-09-06T05:21:57.862Z,32.40
2022-09-06T05:24:34.314Z,32.40
2022-09-06T05:27:08.653Z,32.60
2022-09-06T05:29:42.376Z,32.70
2022-09-06T05:32:16.160Z,32.70
2022-09-06T05:34:52.421Z,32.70
2022-09-06T05:37:25.557Z,32.70
2022-09-06T05:40:01.717Z,32.70
2022-09-06T05:42:35.665Z,32.70
2022-09-06T05:45:10.685Z,32.90
2022-09-06T05:47:43.855Z,33.10
2022-09-06T05:50:17.669Z,33.20
2022-09-06T05:52:51.404Z,33.20
2022-09-06T05:55:26.594Z,33.20
2022-09-06T05:57:59.856Z,33.20
2022-09-06T06:00:38.775Z,33.50
2022-09-06T06:03:11.626Z,33.20
2022-09-06T06:05:50.134Z,33.20
2022-09-06T06:08:24.096Z,33.30
2022-09-06T06:11:06.142Z,33.30
2022-09-06T06:13:41.147Z,33.40
2022-09-06T06:16:16.848Z,33.30
2022-09-06T06:18:52.591Z,33.20
2022-09-06T06:21:28.151Z,33.20
2022-09-06T06:26:52.156Z,33.30
2022-09-06T06:29:34.786Z,33.50
2022-09-06T06:32:08.951Z,33.50
2022-09-06T06:35:07.198Z,33.50
2022-09-06T06:37:40.730Z,33.40
2022-09-06T06:40:20.489Z,33.20
2022-09-06T06:42:55.787Z,33.30
2022-09-06T06:45:32.242Z,33.60
2022-09-06T06:48:05.304Z,33.50
2022-09-06T06:50:38.800Z,33.60
2022-09-06T06:53:12.969Z,33.60
2022-09-06T06:55:55.620Z,33.60
2022-09-06T06:58:30.763Z,33.60
2022-09-06T07:01:04.483Z,33.80
2022-09-06T07:03:38.187Z,33.70
2022-09-06T07:06:13.372Z,33.50
2022-09-06T07:08:47.795Z,33.60
2022-09-06T07:11:24.396Z,33.50
2022-09-06T07:14:00.080Z,33.40
2022-09-06T07:16:37.140Z,33.30
2022-09-06T07:22:05.696Z,33.50
2022-09-06T07:24:40.839Z,33.70
2022-09-06T07:30:10.692Z,33.60
2022-09-06T07:32:43.722Z,33.70
2022-09-06T07:35:17.506Z,33.50
2022-09-06T07:37:59.230Z,33.40
2022-09-06T07:40:36.363Z,33.40
2022-09-06T07:43:10.333Z,33.40
2022-09-06T07:45:46.853Z,33.50
2022-09-06T07:48:20.505Z,33.50
2022-09-06T07:50:58.863Z,33.50
2022-09-06T07:53:33.639Z,33.60
2022-09-06T07:56:10.122Z,33.50
2022-09-06T07:58:44.635Z,33.70
2022-09-06T08:01:32.556Z,33.70
2022-09-06T08:04:07.917Z,33.60
2022-09-06T08:09:39.060Z,33.60
2022-09-06T08:12:13.377Z,33.70
2022-09-06T08:14:46.616Z,33.60
2022-09-06T08:17:21.882Z,33.50
2022-09-06T08:19:55.443Z,33.50
2022-09-06T08:22:29.457Z,33.60
2022-09-06T08:25:03.716Z,33.60
2022-09-06T08:27:37.133Z,33.60
2022-09-06T08:30:11.693Z,33.60
2022-09-06T08:32:46.822Z,33.60
2022-09-06T08:35:20.543Z,33.70
2022-09-06T08:37:54.129Z,33.70
2022-09-06T08:40:31.015Z,33.60
2022-09-06T08:43:04.977Z,33.60
2022-09-06T08:45:40.496Z,33.50
2022-09-06T08:48:15.556Z,33.50
2022-09-06T08:51:00.032Z,33.40
2022-09-06T08:53:33.525Z,33.40
2022-09-06T08:56:26.261Z,33.10
2022-09-06T08:59:08.134Z,33.00
2022-09-06T09:01:49.798Z,32.90
2022-09-06T09:04:53.653Z,32.90
2022-09-06T09:07:39.610Z,33.00
2022-09-06T09:10:18.875Z,32.90
2022-09-06T09:12:52.811Z,32.80
2022-09-06T09:15:37.058Z,32.80
2022-09-06T09:18:13.209Z,32.60
2022-09-06T09:20:47.945Z,32.60
2022-09-06T09:23:21.417Z,32.60
2022-09-06T09:26:00.405Z,32.60
2022-09-06T09:28:34.818Z,32.50
2022-09-06T09:31:08.568Z,32.50
2022-09-06T09:33:42.503Z,32.30
2022-09-06T09:36:37.495Z,32.20
2022-09-06T09:39:16.215Z,32.10
2022-09-06T09:41:55.118Z,32.10
2022-09-06T09:44:31.078Z,32.00
2022-09-06T09:47:04.661Z,31.90
2022-09-06T09:49:39.014Z,31.80
2022-09-06T09:52:17.260Z,31.80
2022-09-06T09:54:55.109Z,31.80
2022-09-06T09:57:29.854Z,31.80
2022-09-06T10:00:04.869Z,31.70
2022-09-06T10:02:40.611Z,31.70
2022-09-06T10:05:24.243Z,31.70
2022-09-06T10:08:01.395Z,31.60
2022-09-06T10:10:38.302Z,31.50
2022-09-06T10:13:24.815Z,31.40
2022-09-06T10:16:04.226Z,31.40
2022-09-06T10:18:39.611Z,31.30
2022-09-06T10:21:17.185Z,31.20
2022-09-06T10:24:27.457Z,31.10
2022-09-06T10:27:05.716Z,31.00
2022-09-06T10:29:49.081Z,30.80
2022-09-06T10:32:37.856Z,30.70
2022-09-06T10:35:24.207Z,30.60
2022-09-06T10:38:25.275Z,30.60
2022-09-06T10:41:14.624Z,30.60
2022-09-06T10:43:58.681Z,30.50
2022-09-06T10:46:35.908Z,30.50
2022-09-06T10:49:13.585Z,30.40
2022-09-06T10:51:51.096Z,30.40
2022-09-06T10:54:27.020Z,30.40
2022-09-06T10:57:06.350Z,30.30
2022-09-06T10:59:43.333Z,30.20
2022-09-06T11:02:31.197Z,30.20
2022-09-06T11:11:37.551Z,30.00
2022-09-06T11:14:17.459Z,30.00
2022-09-06T11:16:55.786Z,29.90
2022-09-06T11:19:32.373Z,29.90
2022-09-06T11:22:40.369Z,29.80
2022-09-06T11:25:43.720Z,29.80
2022-09-06T11:28:23.486Z,29.80
2022-09-06T11:31:05.798Z,29.80
2022-09-06T11:33:41.426Z,29.60
2022-09-06T11:36:33.525Z,29.60
2022-09-06T11:39:09.866Z,29.60
2022-09-06T11:41:44.732Z,29.60
2022-09-06T11:44:37.848Z,29.50
2022-09-06T11:47:14.199Z,29.50
2022-09-06T11:49:47.234Z,29.40
2022-09-06T11:53:01.928Z,29.30
2022-09-06T11:55:42.976Z,29.30
2022-09-06T11:58:32.245Z,29.30
2022-09-06T12:01:43.040Z,29.30
2022-09-06T12:04:18.061Z,29.20
2022-09-06T12:07:13.420Z,29.20
2022-09-06T12:09:51.595Z,29.20
2022-09-06T12:12:45.346Z,29.20
2022-09-06T12:15:36.949Z,29.10
2022-09-06T12:18:10.605Z,29.10
2022-09-06T12:21:07.933Z,29.10
2022-09-06T12:23:50.831Z,29.10
2022-09-06T12:26:58.015Z,29.10
2022-09-06T12:29:32.358Z,29.10
2022-09-06T12:32:13.033Z,29.00
2022-09-06T12:37:58.929Z,29.00
2022-09-06T12:40:36.710Z,29.00
2022-09-06T12:43:13.020Z,29.00
2022-09-06T12:45:49.582Z,28.90
2022-09-06T12:48:42.844Z,29.00
2022-09-06T12:51:30.985Z,29.00
2022-09-06T12:54:08.237Z,28.90
2022-09-06T12:56:41.924Z,28.90
2022-09-06T12:59:23.168Z,28.90
2022-09-06T13:02:04.282Z,28.80
2022-09-06T13:04:43.473Z,28.70
2022-09-06T13:07:22.002Z,28.70
2022-09-06T13:10:01.917Z,28.70
2022-09-06T13:12:38.666Z,28.70
2022-09-06T13:15:23.732Z,28.70
2022-09-06T13:17:59.279Z,28.70
2022-09-06T13:20:36.758Z,28.70
2022-09-06T13:23:24.536Z,28.80
2022-09-06T13:25:59.476Z,28.60
2022-09-06T13:28:52.638Z,28.60
2022-09-06T13:31:28.831Z,28.50
2022-09-06T13:34:03.550Z,28.50
2022-09-06T13:36:37.922Z,28.50
2022-09-06T13:39:11.575Z,28.50
2022-09-06T13:41:48.115Z,28.50
2022-09-06T13:44:33.323Z,28.50
2022-09-06T13:47:07.697Z,28.50
2022-09-06T13:49:41.677Z,28.50
2022-09-06T13:52:21.709Z,28.50
2022-09-06T13:55:04.853Z,28.40
2022-09-06T13:57:43.867Z,28.30
2022-09-06T14:00:19.064Z,28.30
2022-09-06T14:02:53.382Z,28.30
2022-09-06T14:05:27.080Z,28.30
2022-09-06T14:08:01.673Z,28.30
2022-09-06T14:10:35.384Z,28.30
2022-09-06T14:13:12.268Z,28.30
2022-09-06T14:15:47.152Z,28.30
2022-09-06T14:18:21.790Z,28.30
2022-09-06T14:21:06.925Z,28.20
2022-09-06T14:23:41.296Z,28.20
2022-09-06T14:29:05.778Z,28.20
2022-09-06T14:31:41.471Z,28.20
2022-09-06T14:34:15.815Z,28.20
2022-09-06T14:36:49.890Z,28.10
2022-09-06T14:39:24.569Z,28.20
2022-09-06T14:44:47.894Z,28.10
2022-09-06T14:47:21.417Z,28.10
2022-09-06T14:49:58.489Z,28.00
2022-09-06T14:52:33.251Z,28.00
2022-09-06T14:55:06.911Z,28.00
2022-09-06T14:57:40.244Z,28.00
2022-09-06T15:00:18.106Z,27.90
2022-09-06T15:02:52.270Z,27.90
2022-09-06T15:05:26.334Z,27.90
2022-09-06T15:08:01.046Z,27.90
2022-09-06T15:10:39.015Z,27.90
2022-09-06T15:13:14.697Z,27.90
2022-09-06T15:18:37.741Z,27.90
2022-09-06T15:21:15.257Z,27.80
2022-09-06T15:23:49.742Z,27.80
2022-09-06T15:26:23.841Z,27.80
2022-09-06T15:28:58.094Z,27.80
2022-09-06T15:31:37.176Z,27.70
2022-09-06T15:34:24.075Z,27.70
2022-09-06T15:39:47.375Z,27.60
2022-09-06T15:42:21.075Z,27.60
2022-09-06T15:44:54.667Z,27.60
2022-09-06T15:47:30.708Z,27.60
2022-09-06T15:50:06.668Z,27.50
2022-09-06T15:52:40.269Z,27.60
2022-09-06T15:55:30.818Z,27.60
2022-09-06T15:58:04.959Z,27.60
2022-09-06T16:00:38.358Z,27.60
2022-09-06T16:03:16.027Z,27.60
2022-09-06T16:08:45.114Z,27.50
2022-09-06T16:11:20.852Z,27.50
2022-09-06T16:13:56.036Z,27.50
2022-09-06T16:16:30.830Z,27.50
2022-09-06T16:19:11.599Z,27.50
2022-09-06T16:21:48.217Z,27.50
2022-09-06T16:24:24.002Z,27.50
2022-09-06T16:27:07.285Z,27.60
2022-09-06T16:30:04.099Z,27.70
2022-09-06T16:32:38.246Z,28.00
2022-09-06T16:35:15.027Z,28.00
2022-09-06T16:37:49.620Z,28.10
2022-09-06T16:40:23.456Z,28.10
2022-09-06T16:42:57.766Z,28.20
2022-09-06T16:45:33.371Z,28.10
2022-09-06T16:48:08.125Z,28.10
2022-09-06T16:50:45.249Z,28.10
2022-09-06T16:53:21.977Z,28.10
2022-09-06T16:55:55.977Z,27.90
2022-09-06T16:58:31.556Z,27.80
2022-09-06T17:01:05.725Z,27.70
2022-09-06T17:03:41.567Z,27.60
2022-09-06T17:06:17.466Z,27.50
2022-09-06T17:08:51.631Z,27.50
2022-09-06T17:11:26.001Z,27.50
2022-09-06T17:14:00.783Z,27.50
2022-09-06T17:19:39.331Z,27.70
2022-09-06T17:22:16.030Z,27.80
2022-09-06T17:24:49.719Z,27.90
2022-09-06T17:27:24.654Z,27.70
2022-09-06T17:30:00.660Z,27.50
2022-09-06T17:32:34.757Z,27.50
2022-09-06T17:35:08.868Z,27.50
2022-09-06T17:37:45.478Z,27.40
2022-09-06T17:40:19.445Z,27.40
2022-09-06T17:42:53.258Z,27.40
2022-09-06T17:45:27.037Z,27.40
2022-09-06T17:48:00.899Z,27.30
2022-09-06T17:50:36.160Z,27.30
2022-09-06T17:53:12.184Z,27.20
2022-09-06T17:55:45.981Z,27.20
2022-09-06T17:58:19.532Z,27.20
2022-09-06T18:00:54.156Z,27.30
2022-09-06T18:03:27.666Z,27.40
2022-09-06T18:06:06.940Z,27.40
2022-09-06T18:11:33.331Z,27.30
2022-09-06T18:14:08.848Z,27.20
2022-09-06T18:16:46.264Z,27.20
2022-09-06T18:19:20.308Z,27.10
2022-09-06T18:21:55.349Z,27.10
2022-09-06T18:24:32.089Z,27.10
2022-09-06T18:27:05.999Z,27.10
2022-09-06T18:29:39.912Z,27.10
2022-09-06T18:32:14.436Z,27.10
2022-09-06T18:34:48.070Z,27.10
2022-09-06T18:37:22.240Z,27.00
2022-09-06T18:39:57.898Z,27.00
2022-09-06T18:42:31.258Z,27.00
2022-09-06T18:45:05.556Z,27.10
2022-09-06T18:47:39.334Z,27.10
2022-09-06T18:50:12.958Z,27.10
2022-09-06T18:52:46.603Z,27.20
2022-09-06T18:55:21.445Z,27.10
2022-09-06T18:57:55.172Z,27.00
2022-09-06T19:00:29.273Z,27.00
2022-09-06T19:05:50.360Z,26.90
2022-09-06T19:08:23.968Z,26.80
2022-09-06T19:13:56.781Z,26.80
2022-09-06T19:16:36.224Z,26.70
2022-09-06T19:19:11.272Z,26.70
2022-09-06T19:21:49.142Z,26.70
2022-09-06T19:24:24.086Z,26.70
2022-09-06T19:27:00.075Z,26.70
2022-09-06T19:29:33.996Z,26.70
2022-09-06T19:32:09.025Z,26.70
2022-09-06T19:34:43.043Z,26.80
2022-09-06T19:37:18.692Z,26.90
2022-09-06T19:39:52.178Z,26.90
2022-09-06T19:42:26.661Z,26.70
2022-09-06T19:45:00.307Z,26.70
2022-09-06T19:47:33.824Z,26.70
2022-09-06T19:50:07.580Z,26.60
2022-09-06T19:52:40.957Z,26.70
2022-09-06T19:55:15.161Z,26.60
2022-09-06T19:57:51.098Z,26.50
2022-09-06T20:00:24.601Z,26.50
2022-09-06T20:02:59.163Z,26.50
2022-09-06T20:05:32.916Z,26.60
2022-09-06T20:08:06.807Z,26.50
2022-09-06T20:10:40.062Z,26.50
2022-09-06T20:13:15.582Z,26.50
2022-09-06T20:15:52.886Z,26.40
2022-09-06T20:18:27.068Z,26.40
2022-09-06T20:21:02.320Z,26.40
2022-09-06T20:26:38.884Z,26.40
2022-09-06T20:29:14.803Z,26.50
2022-09-06T20:31:47.909Z,26.60
2022-09-06T20:34:23.196Z,26.50
2022-09-06T20:36:57.307Z,26.50
2022-09-06T20:39:45.232Z,26.50
2022-09-06T20:42:19.245Z,26.50
2022-09-06T20:44:55.375Z,26.40
2022-09-06T20:47:29.688Z,26.40
2022-09-06T20:50:03.270Z,26.40
2022-09-06T20:52:40.220Z,26.40
2022-09-06T20:55:14.758Z,26.30
2022-09-06T20:57:50.319Z,26.30
2022-09-06T21:00:26.216Z,26.30
2022-09-06T21:02:59.986Z,26.30
2022-09-06T21:05:33.747Z,26.30
2022-09-06T21:08:07.590Z,26.20
2022-09-06T21:10:45.588Z,26.20
2022-09-06T21:13:19.297Z,26.20
2022-09-06T21:15:55.178Z,26.10
2022-09-06T21:18:30.612Z,26.10
2022-09-06T21:21:06.040Z,26.00
2022-09-06T21:23:41.322Z,26.00
2022-09-06T21:26:17.248Z,26.00
2022-09-06T21:28:51.903Z,25.90
2022-09-06T21:31:28.979Z,25.90
2022-09-06T21:34:06.506Z,25.70
2022-09-06T21:36:41.865Z,25.80
2022-09-06T21:39:16.754Z,25.80
2022-09-06T21:41:50.607Z,25.70
2022-09-06T21:44:30.081Z,25.70
2022-09-06T21:47:13.479Z,25.80
2022-09-06T21:49:47.334Z,25.50
2022-09-06T21:52:23.419Z,25.50
2022-09-06T21:54:57.889Z,25.40
2022-09-06T21:57:31.738Z,25.30
2022-09-06T22:00:06.041Z,25.30
2022-09-06T22:02:41.644Z,25.30
2022-09-06T22:05:15.837Z,25.20
2022-09-06T22:10:37.529Z,25.30
2022-09-06T22:13:11.865Z,25.20
2022-09-06T22:15:46.413Z,25.20
2022-09-06T22:18:21.850Z,25.20
2022-09-06T22:21:03.161Z,25.30
2022-09-06T22:23:37.005Z,25.30
2022-09-06T22:29:01.179Z,25.30
2022-09-06T22:31:39.519Z,25.30
2022-09-06T22:34:15.966Z,25.30
2022-09-06T22:36:50.095Z,25.30
2022-09-06T22:39:24.205Z,25.20
2022-09-06T22:41:58.108Z,25.20
2022-09-06T22:44:32.285Z,25.10
2022-09-06T22:47:08.289Z,25.20
2022-09-06T22:49:43.994Z,25.20
2022-09-06T22:52:17.510Z,25.30
2022-09-06T22:54:51.168Z,25.20
2022-09-06T22:57:28.546Z,25.10
2022-09-06T23:00:02.820Z,24.90
2022-09-06T23:02:36.974Z,24.90
2022-09-06T23:05:13.493Z,24.90
2022-09-06T23:07:47.440Z,25.10
2022-09-06T23:10:21.678Z,25.10
2022-09-06T23:12:57.910Z,25.00
2022-09-06T23:15:33.596Z,24.90
2022-09-06T23:18:07.677Z,25.00
2022-09-06T23:20:43.487Z,25.00
2022-09-06T23:23:17.532Z,25.00
2022-09-06T23:25:51.055Z,25.20
2022-09-06T23:28:24.826Z,25.30
2022-09-06T23:30:59.071Z,25.40
2022-09-06T23:36:22.662Z,25.50
2022-09-06T23:38:57.314Z,25.40
2022-09-06T23:41:31.220Z,25.30
2022-09-06T23:44:06.049Z,25.30
2022-09-06T23:46:40.246Z,25.30
2022-09-06T23:49:13.803Z,25.20
2022-09-06T23:51:49.499Z,25.30
2022-09-06T23:54:22.879Z,25.20
2022-09-06T23:56:56.976Z,25.20
2022-09-06T23:59:31.196Z,25.10
